Time;durP1;ratioP1;P1;durP2;ratioP2;P2;SDS_P1;SDS_P2;PMS_P1;PMS_P2;Temp;Humidity;BMP_temperature;BMP_pressure;BME280_temperature;BME280_humidity;BME280_pressure;Samples;Min_cycle;Max_cycle;Signal;HPM_P1;HPM_P2
2021/12/05 00:17:38;;;;;;;6.72;2.05;;;6.20;94.30;;;;;;4987016;28;20078;-88
2021/12/05 00:20:10;;;;;;;5.63;2.17;;;6.20;94.40;;;;;;4959112;28;20125;-90
2021/12/05 00:22:40;;;;;;;4.07;1.45;;;6.20;94.40;;;;;;4979967;28;20533;-87
2021/12/05 00:25:09;;;;;;;4.90;1.40;;;6.20;94.40;;;;;;4965168;28;20359;-89
2021/12/05 00:27:45;;;;;;;4.50;1.58;;;6.20;94.40;;;;;;4975052;28;20018;-89
2021/12/05 01:00:31;;;;;;;6.15;1.40;;;6.10;94.60;;;;;;4973966;28;20117;-89
2021/12/05 01:08:16;;;;;;;6.55;1.52;;;6.10;94.60;;;;;;4968973;28;23384;-90
2021/12/05 01:15:44;;;;;;;4.82;1.33;;;6.10;94.60;;;;;;4968371;28;20387;-89
2021/12/05 01:18:14;;;;;;;6.53;1.88;;;6.10;94.70;;;;;;4979810;28;20038;-89
2021/12/05 01:20:45;;;;;;;3.53;1.33;;;6.20;94.80;;;;;;4969037;28;20403;-89
2021/12/05 01:26:00;;;;;;;4.90;1.65;;;6.10;94.70;;;;;;4968317;28;20415;-89
2021/12/05 01:42:23;;;;;;;4.35;1.95;;;6.30;95.50;;;;;;4934932;28;20031;-89
2021/12/05 02:41:41;;;;;;;2.20;2.00;;;6.50;95.10;;;;;;4968256;28;20077;-89
2021/12/05 02:44:15;;;;;;;4.72;2.20;;;6.60;95.20;;;;;;4967360;28;20026;-89
2021/12/05 02:46:44;;;;;;;;;;;6.60;95.30;;;;;;4967467;28;20030;-90
2021/12/05 02:49:14;;;;;;;3.85;1.92;;;6.60;94.30;;;;;;4987153;28;19916;-88
2021/12/05 02:51:40;;;;;;;5.35;2.33;;;6.60;95.20;;;;;;4972907;28;20031;-89
2021/12/05 02:54:15;;;;;;;2.67;1.83;;;6.70;95.20;;;;;;4970108;28;20023;-88
2021/12/05 02:56:47;;;;;;;3.92;1.90;;;6.60;95.20;;;;;;4940375;28;20026;-88
2021/12/05 02:59:23;;;;;;;2.63;2.10;;;6.60;95.30;;;;;;4960174;28;20045;-89
2021/12/05 03:02:05;;;;;;;3.50;1.90;;;6.70;95.40;;;;;;4962937;28;20092;-89
2021/12/05 03:04:32;;;;;;;2.70;1.60;;;6.60;95.40;;;;;;4954070;28;20042;-88
2021/12/05 03:07:06;;;;;;;4.10;2.10;;;6.60;95.50;;;;;;4970580;28;20062;-88
2021/12/05 03:09:32;;;;;;;3.05;2.05;;;6.70;95.40;;;;;;4972612;28;20018;-88
2021/12/05 03:11:58;;;;;;;2.83;1.90;;;6.70;95.60;;;;;;4955321;28;20019;-88
2021/12/05 03:14:24;;;;;;;3.00;1.83;;;6.70;95.60;;;;;;4966980;28;20075;-88
2021/12/05 03:16:50;;;;;;;5.78;2.00;;;6.80;95.60;;;;;;4951587;28;20274;-89
2021/12/05 03:19:18;;;;;;;2.40;1.83;;;6.80;95.60;;;;;;4983892;28;20068;-89
2021/12/05 03:21:47;;;;;;;3.22;2.13;;;6.80;95.50;;;;;;4976433;28;20684;-87
2021/12/05 03:24:15;;;;;;;2.47;1.67;;;6.80;95.50;;;;;;4961584;28;20093;-89
2021/12/05 03:26:44;;;;;;;3.97;2.10;;;6.80;95.50;;;;;;4946988;28;20527;-89
2021/12/05 03:29:13;;;;;;;3.38;2.00;;;6.80;95.40;;;;;;4967901;28;20126;-90
2021/12/05 03:31:40;;;;;;;2.25;2.05;;;6.80;95.40;;;;;;4967376;28;20378;-89
2021/12/05 03:34:10;;;;;;;2.70;1.55;;;6.90;95.40;;;;;;4974122;28;20092;-89
2021/12/05 03:36:37;;;;;;;1.70;1.58;;;6.80;95.20;;;;;;4969377;28;20034;-90
2021/12/05 03:39:06;;;;;;;3.13;1.80;;;6.80;95.20;;;;;;4983444;28;20504;-90
2021/12/05 03:41:32;;;;;;;4.18;1.98;;;6.90;95.10;;;;;;4956653;28;20030;-89
2021/12/05 03:43:58;;;;;;;3.97;1.70;;;6.80;95.00;;;;;;4969741;28;20168;-90
2021/12/05 03:46:25;;;;;;;4.00;1.67;;;6.80;94.90;;;;;;4968317;28;20038;-88
2021/12/05 03:48:57;;;;;;;3.35;1.65;;;6.80;94.80;;;;;;4970671;28;20099;-90
2021/12/05 03:51:25;;;;;;;2.42;1.83;;;6.70;95.10;;;;;;4963030;28;20034;-90
2021/12/05 03:53:52;;;;;;;3.10;1.70;;;6.70;94.80;;;;;;4972051;28;23135;-90
2021/12/05 03:56:19;;;;;;;3.20;1.63;;;6.60;94.90;;;;;;4968039;28;20398;-91
2021/12/05 03:58:46;;;;;;;2.65;1.50;;;6.60;94.80;;;;;;4993052;28;20323;-90
2021/12/05 04:01:12;;;;;;;1.58;1.48;;;6.60;94.90;;;;;;4948552;28;20068;-90
2021/12/05 04:03:40;;;;;;;2.33;1.60;;;6.60;95.00;;;;;;4950391;28;20051;-91
2021/12/05 04:06:10;;;;;;;2.35;1.50;;;6.60;95.00;;;;;;4957638;28;20455;-90
2021/12/05 04:08:39;;;;;;;1.48;1.38;;;6.50;94.80;;;;;;4986744;28;20459;-92
2021/12/05 04:11:10;;;;;;;2.20;1.42;;;6.50;94.90;;;;;;4959212;28;20034;-90
2021/12/05 04:13:36;;;;;;;1.45;1.20;;;6.50;95.00;;;;;;4986434;28;20346;-91
2021/12/05 04:16:04;;;;;;;1.83;1.73;;;6.40;95.00;;;;;;4969533;28;20506;-91
2021/12/05 04:18:30;;;;;;;2.05;1.90;;;6.40;95.10;;;;;;4979290;28;20476;-88
2021/12/05 04:20:56;;;;;;;2.03;1.70;;;6.40;95.10;;;;;;4981965;28;20212;-90
2021/12/05 04:23:22;;;;;;;1.75;1.33;;;6.40;95.10;;;;;;4964678;28;20077;-91
2021/12/05 04:25:50;;;;;;;1.52;1.30;;;6.30;95.10;;;;;;4978752;28;20621;-90
2021/12/05 04:28:18;;;;;;;2.72;1.60;;;6.30;95.20;;;;;;4963635;28;20121;-91
2021/12/05 04:30:43;;;;;;;3.63;1.60;;;6.30;95.20;;;;;;4968708;28;20070;-91
2021/12/05 04:33:10;;;;;;;2.05;1.70;;;6.30;95.30;;;;;;4968661;28;20022;-90
2021/12/05 04:35:36;;;;;;;1.85;1.50;;;6.30;95.40;;;;;;4959816;28;20022;-91
2021/12/05 04:38:03;;;;;;;2.40;1.55;;;6.30;95.40;;;;;;4961992;28;20026;-92
2021/12/05 04:40:29;;;;;;;1.60;1.50;;;6.30;95.50;;;;;;4994083;28;20026;-91
2021/12/05 04:42:55;;;;;;;4.65;1.90;;;6.30;95.50;;;;;;4971972;28;20147;-90
2021/12/05 04:45:25;;;;;;;2.15;1.75;;;6.30;95.50;;;;;;4979633;28;20057;-90
2021/12/05 04:47:51;;;;;;;2.53;2.20;;;6.30;95.50;;;;;;4967334;28;20371;-91
2021/12/05 04:50:19;;;;;;;1.77;1.67;;;6.30;95.50;;;;;;4966971;28;21256;-91
2021/12/05 04:52:45;;;;;;;2.03;1.83;;;6.20;95.60;;;;;;4982876;28;20039;-90
2021/12/05 04:55:11;;;;;;;3.58;2.05;;;6.20;95.60;;;;;;4979202;28;20026;-91
2021/12/05 04:57:38;;;;;;;1.70;1.60;;;6.20;95.70;;;;;;4969655;28;20549;-90
2021/12/05 05:00:17;;;;;;;2.60;1.73;;;6.30;95.70;;;;;;4978454;28;20534;-90
2021/12/05 05:02:43;;;;;;;2.15;2.03;;;6.20;95.70;;;;;;4949354;28;20045;-90
2021/12/05 05:05:10;;;;;;;2.40;2.20;;;6.30;95.70;;;;;;4951631;28;20041;-91
2021/12/05 05:07:38;;;;;;;2.95;2.03;;;6.30;95.80;;;;;;4971756;28;20034;-90
2021/12/05 05:10:09;;;;;;;2.63;2.42;;;6.30;95.80;;;;;;4958193;28;20522;-90
2021/12/05 05:12:35;;;;;;;5.65;2.75;;;6.30;95.80;;;;;;4975568;28;20019;-90
2021/12/05 05:15:01;;;;;;;2.70;2.22;;;6.30;95.80;;;;;;4960741;28;20257;-91
2021/12/05 05:17:26;;;;;;;2.70;2.30;;;6.30;95.80;;;;;;4951848;28;20037;-91
2021/12/05 05:19:58;;;;;;;2.80;2.50;;;6.30;95.90;;;;;;4946585;28;20855;-88
2021/12/05 05:41:34;;;;;;;4.20;2.88;;;6.40;96.00;;;;;;4970303;28;20248;-91
2021/12/05 05:46:27;;;;;;;4.45;3.22;;;6.40;95.90;;;;;;4977439;28;20449;-91
2021/12/05 05:51:40;;;;;;;3.30;2.58;;;6.40;95.90;;;;;;4960435;28;20443;-91
2021/12/05 05:54:06;;;;;;;3.28;2.72;;;6.30;95.90;;;;;;4977732;28;20125;-91
2021/12/05 05:56:33;;;;;;;4.00;3.13;;;6.40;96.30;;;;;;4953322;28;20105;-91
2021/12/05 05:59:17;;;;;;;3.50;3.10;;;6.40;95.90;;;;;;4973069;28;20030;-91
2021/12/05 06:04:14;;;;;;;3.30;3.00;;;6.40;95.80;;;;;;4947587;28;20136;-91
2021/12/05 06:06:40;;;;;;;3.33;2.85;;;6.40;95.80;;;;;;4937885;28;20713;-90
2021/12/05 06:09:05;;;;;;;3.47;2.83;;;6.30;95.80;;;;;;4965538;28;20030;-91
2021/12/05 06:11:31;;;;;;;3.30;2.83;;;6.40;95.70;;;;;;4953586;28;20030;-91
2021/12/05 06:13:57;;;;;;;2.97;2.30;;;6.40;95.80;;;;;;4982500;28;20065;-91
2021/12/05 06:16:22;;;;;;;2.70;2.50;;;6.40;95.80;;;;;;4987674;28;20498;-91
2021/12/05 06:18:48;;;;;;;3.60;2.80;;;6.40;95.80;;;;;;4977130;28;20038;-91
2021/12/05 06:21:15;;;;;;;3.22;2.85;;;6.40;95.80;;;;;;4953320;28;20082;-91
2021/12/05 06:23:41;;;;;;;3.05;2.75;;;6.40;95.80;;;;;;4970460;28;20022;-91
2021/12/05 06:26:11;;;;;;;3.67;2.70;;;6.40;95.70;;;;;;4950043;28;20499;-91
2021/12/05 06:28:43;;;;;;;2.70;2.38;;;6.40;95.80;;;;;;4966599;28;20125;-91
2021/12/05 06:39:39;;;;;;;3.10;2.25;;;6.40;95.40;;;;;;4956104;28;19916;-91
2021/12/05 06:47:34;;;;;;;2.95;2.67;;;6.40;95.90;;;;;;4966555;28;20363;-91
2021/12/05 06:50:00;;;;;;;3.13;2.75;;;6.40;95.90;;;;;;4980555;28;20062;-91
2021/12/05 06:52:26;;;;;;;3.28;2.95;;;6.40;95.90;;;;;;4934221;28;20026;-91
2021/12/05 06:54:52;;;;;;;2.63;2.10;;;6.40;95.90;;;;;;4968711;28;20476;-91
2021/12/05 06:57:18;;;;;;;2.45;2.25;;;6.50;96.00;;;;;;4965483;28;20026;-91
2021/12/05 06:59:45;;;;;;;3.90;2.45;;;6.50;96.00;;;;;;4950062;28;20422;-91
2021/12/05 07:02:13;;;;;;;2.45;2.25;;;6.50;96.00;;;;;;4955846;28;20063;-91
2021/12/05 07:04:56;;;;;;;3.00;2.70;;;6.50;96.00;;;;;;4968570;28;20473;-92
2021/12/05 07:07:25;;;;;;;2.92;2.33;;;6.40;95.90;;;;;;4977356;28;20034;-91
2021/12/05 07:09:52;;;;;;;3.67;2.38;;;6.50;96.00;;;;;;4974639;28;20062;-91
2021/12/05 07:15:10;;;;;;;4.75;2.90;;;6.50;96.00;;;;;;4967003;28;20235;-92
2021/12/05 07:26:07;;;;;;;3.65;3.20;;;6.50;95.90;;;;;;4953399;28;20491;-92
2021/12/05 07:42:22;;;;;;;4.55;3.75;;;6.50;96.00;;;;;;4960030;28;20041;-92
2021/12/05 07:44:49;;;;;;;3.88;3.28;;;6.50;95.90;;;;;;4964103;28;20044;-92
2021/12/05 07:47:18;;;;;;;4.93;3.35;;;6.50;96.00;;;;;;4974593;28;20121;-92
2021/12/05 07:49:47;;;;;;;4.30;3.40;;;6.50;96.00;;;;;;4949919;28;20311;-92
2021/12/05 07:52:17;;;;;;;4.35;3.30;;;6.50;96.00;;;;;;4973905;28;20035;-91
2021/12/05 07:54:47;;;;;;;3.70;2.97;;;6.50;96.10;;;;;;4932589;28;20031;-92
2021/12/05 08:16:00;;;;;;;4.13;2.88;;;6.50;96.00;;;;;;4965087;28;20034;-92
2021/12/05 08:18:27;;;;;;;4.65;3.35;;;6.60;96.20;;;;;;4963930;28;20053;-92
2021/12/05 08:20:53;;;;;;;4.45;3.17;;;6.60;96.30;;;;;;4960011;28;20511;-92
2021/12/05 08:23:22;;;;;;;3.67;3.10;;;6.60;96.40;;;;;;4956588;28;20046;-92
2021/12/05 08:25:55;;;;;;;3.55;3.00;;;6.60;96.40;;;;;;4959262;28;20050;-91
2021/12/05 08:28:37;;;;;;;2.72;2.50;;;6.60;96.60;;;;;;4947517;28;20076;-92
2021/12/05 08:31:14;;;;;;;3.53;3.10;;;6.60;96.60;;;;;;4968050;28;20026;-92
2021/12/05 09:28:07;;;;;;;4.57;3.42;;;6.70;96.10;;;;;;4950551;28;20235;-91
2021/12/05 10:03:23;;;;;;;3.00;2.33;;;6.80;96.70;;;;;;4977612;28;20157;-91
2021/12/05 10:38:04;;;;;;;3.15;2.85;;;7.20;96.60;;;;;;4970079;28;20316;-91
2021/12/05 10:40:36;;;;;;;3.10;2.80;;;7.20;96.80;;;;;;4964967;28;20699;-91
2021/12/05 10:43:03;;;;;;;3.75;3.22;;;7.20;96.90;;;;;;4973190;28;20305;-91
2021/12/05 10:45:36;;;;;;;3.60;3.10;;;7.30;97.20;;;;;;4950001;28;21165;-90
2021/12/05 10:48:07;;;;;;;3.80;2.72;;;7.40;97.50;;;;;;4961204;28;20085;-91
2021/12/05 10:50:41;;;;;;;4.63;3.38;;;7.50;97.90;;;;;;4959502;28;20309;-91
2021/12/05 10:53:26;;;;;;;4.93;3.67;;;7.60;98.80;;;;;;4965927;28;20509;-91
2021/12/05 10:56:10;;;;;;;4.70;3.35;;;7.90;99.50;;;;;;4964088;28;20023;-91
2021/12/05 10:59:08;;;;;;;3.80;3.10;;;8.20;99.80;;;;;;4958069;28;20705;-91
2021/12/05 11:01:40;;;;;;;3.95;3.13;;;8.40;99.60;;;;;;4948885;28;20063;-90
2021/12/05 11:04:18;;;;;;;3.85;3.20;;;8.60;99.40;;;;;;4953661;28;20460;-90
2021/12/05 11:06:56;;;;;;;4.18;3.30;;;8.80;98.90;;;;;;4933919;28;20668;-90
2021/12/05 11:09:33;;;;;;;3.72;2.88;;;8.90;98.40;;;;;;4955753;28;20040;-90
2021/12/05 11:12:08;;;;;;;3.72;3.17;;;9.00;98.30;;;;;;4956846;28;20046;-91
2021/12/05 11:14:56;;;;;;;3.88;3.17;;;9.00;97.90;;;;;;4958552;28;20314;-90
2021/12/05 11:17:30;;;;;;;3.22;2.83;;;9.00;97.60;;;;;;4961492;28;20041;-90
2021/12/05 11:20:02;;;;;;;4.05;3.30;;;9.00;97.10;;;;;;4956425;28;20026;-90
2021/12/05 11:22:29;;;;;;;4.05;3.22;;;9.00;96.70;;;;;;4935869;28;20060;-90
2021/12/05 11:25:00;;;;;;;5.00;3.63;;;8.90;96.10;;;;;;4959323;28;20030;-90
2021/12/05 11:27:36;;;;;;;4.40;3.50;;;8.90;95.70;;;;;;4959913;28;20063;-90
2021/12/05 11:30:13;;;;;;;2.80;2.55;;;8.80;95.40;;;;;;4970207;28;20054;-90
2021/12/05 11:33:02;;;;;;;3.60;2.88;;;8.70;95.30;;;;;;4944820;28;20372;-90
2021/12/05 11:35:47;;;;;;;3.17;2.80;;;8.60;95.50;;;;;;4971630;28;20034;-90
2021/12/05 11:38:32;;;;;;;3.40;2.67;;;8.60;95.50;;;;;;4967660;28;20041;-90
2021/12/05 11:41:10;;;;;;;4.03;2.60;;;8.50;95.40;;;;;;4950478;28;20446;-90
2021/12/05 11:43:42;;;;;;;3.85;2.95;;;8.40;95.40;;;;;;4950856;28;20041;-90
2021/12/05 11:46:45;;;;;;;4.20;3.13;;;8.40;95.60;;;;;;4974870;28;20117;-90
2021/12/05 11:49:20;;;;;;;4.30;3.15;;;8.30;95.40;;;;;;4965575;28;20074;-90
2021/12/05 11:51:55;;;;;;;3.08;2.78;;;8.30;95.50;;;;;;4981915;28;20254;-90
2021/12/05 11:54:30;;;;;;;3.05;2.70;;;8.20;95.50;;;;;;4945222;28;20070;-90
2021/12/05 11:57:06;;;;;;;3.28;2.70;;;8.10;95.60;;;;;;4964855;28;20493;-90
2021/12/05 11:59:55;;;;;;;3.50;3.17;;;8.10;95.70;;;;;;4940722;28;20039;-90
2021/12/05 12:02:28;;;;;;;3.53;3.22;;;8.10;95.70;;;;;;4957993;28;20053;-90
2021/12/05 12:05:01;;;;;;;3.42;3.13;;;8.10;95.80;;;;;;4972287;28;20395;-90
2021/12/05 12:07:42;;;;;;;4.00;3.35;;;8.00;95.80;;;;;;4973820;28;20093;-90
2021/12/05 12:10:22;;;;;;;3.95;3.10;;;8.00;95.90;;;;;;4976654;28;20911;-90
2021/12/05 12:12:55;;;;;;;3.53;3.22;;;8.00;95.90;;;;;;4954002;28;20030;-90
2021/12/05 12:15:23;;;;;;;4.03;3.60;;;8.00;95.90;;;;;;4977456;28;20018;-90
2021/12/05 12:17:51;;;;;;;4.25;3.15;;;8.00;95.90;;;;;;4947823;28;20281;-90
2021/12/05 12:20:22;;;;;;;3.42;3.13;;;7.90;95.90;;;;;;4994233;28;20420;-90
2021/12/05 12:22:50;;;;;;;3.45;3.15;;;8.00;95.80;;;;;;4963193;28;20037;-90
2021/12/05 12:25:21;;;;;;;3.40;3.10;;;7.90;95.80;;;;;;4959795;28;20348;-90
2021/12/05 12:27:49;;;;;;;3.47;3.17;;;7.90;95.80;;;;;;4980025;28;20030;-90
2021/12/05 12:30:24;;;;;;;3.72;3.42;;;7.90;95.90;;;;;;4962050;28;20053;-90
2021/12/05 12:32:54;;;;;;;3.75;3.38;;;7.90;95.90;;;;;;4951010;28;20030;-90
2021/12/05 12:35:25;;;;;;;5.60;3.38;;;7.90;96.00;;;;;;4957290;28;20216;-90
2021/12/05 12:38:08;;;;;;;3.72;3.28;;;7.90;95.90;;;;;;4962379;28;20436;-90
2021/12/05 12:40:36;;;;;;;3.70;3.00;;;7.90;95.80;;;;;;4985258;28;20504;-90
2021/12/05 12:43:03;;;;;;;4.53;3.38;;;7.90;96.00;;;;;;4969756;28;20037;-90
2021/12/05 12:45:39;;;;;;;4.20;3.50;;;7.80;96.00;;;;;;4966927;28;20115;-90
2021/12/05 12:48:11;;;;;;;4.38;3.65;;;7.90;96.30;;;;;;4941109;28;20143;-90
2021/12/05 12:50:50;;;;;;;3.95;3.55;;;7.90;96.00;;;;;;4976205;28;20491;-90
2021/12/05 12:53:28;;;;;;;4.22;3.60;;;7.80;95.90;;;;;;4977297;28;20881;-89
2021/12/05 12:56:04;;;;;;;4.25;3.83;;;7.80;95.90;;;;;;4960327;28;20030;-89
2021/12/05 12:58:42;;;;;;;4.13;3.63;;;7.80;95.90;;;;;;4963414;28;20041;-90
2021/12/05 13:01:19;;;;;;;5.35;4.20;;;7.80;95.90;;;;;;4966255;28;20238;-90
2021/12/05 13:05:00;;;;;;;4.47;3.72;;;7.80;95.90;;;;;;4975231;28;20402;-90
2021/12/05 13:12:39;;;;;;;4.38;3.97;;;7.80;96.00;;;;;;4967372;28;20391;-90
2021/12/05 13:15:37;;;;;;;4.15;3.75;;;7.70;96.00;;;;;;4966865;28;20253;-90
2021/12/05 13:18:13;;;;;;;4.30;3.50;;;7.80;95.90;;;;;;4943903;28;20082;-90
2021/12/05 13:20:42;;;;;;;5.05;4.07;;;7.80;96.20;;;;;;4958295;28;20038;-90
2021/12/05 13:23:31;;;;;;;5.05;3.90;;;7.80;96.30;;;;;;4950671;28;20033;-90
2021/12/05 13:26:23;;;;;;;5.32;3.95;;;7.80;96.40;;;;;;4974105;28;20502;-90
2021/12/05 13:28:54;;;;;;;4.90;3.75;;;7.80;96.20;;;;;;4966400;28;20116;-90
2021/12/05 13:31:29;;;;;;;5.20;4.18;;;7.80;96.40;;;;;;4967124;28;22357;-90
2021/12/05 13:34:17;;;;;;;4.50;4.07;;;7.80;96.30;;;;;;4969153;28;20030;-90
2021/12/05 13:36:51;;;;;;;4.47;3.80;;;7.90;96.20;;;;;;4944137;28;20038;-87
2021/12/05 13:39:36;;;;;;;5.50;4.25;;;7.90;96.50;;;;;;4957823;28;20339;-87
2021/12/05 13:42:15;;;;;;;4.38;3.83;;;7.90;96.20;;;;;;4955847;28;20137;-90
2021/12/05 13:45:00;;;;;;;4.38;3.97;;;7.90;96.40;;;;;;4984245;28;20038;-90
2021/12/05 13:47:52;;;;;;;4.78;3.97;;;7.90;96.10;;;;;;4965500;28;20451;-90
2021/12/05 13:50:29;;;;;;;5.57;4.18;;;7.90;96.10;;;;;;4974116;28;20699;-90
2021/12/05 13:53:07;;;;;;;6.00;4.43;;;8.00;96.40;;;;;;4941572;28;20472;-90
2021/12/05 13:55:46;;;;;;;5.88;4.35;;;8.00;96.30;;;;;;4951348;28;20027;-90
2021/12/05 13:58:32;;;;;;;4.70;4.05;;;8.00;96.20;;;;;;4948407;28;20124;-90
2021/12/05 14:01:07;;;;;;;4.85;4.13;;;8.00;96.00;;;;;;4961184;28;20129;-90
2021/12/05 14:03:51;;;;;;;5.03;4.15;;;8.00;96.20;;;;;;4952738;28;20045;-90
2021/12/05 14:06:26;;;;;;;4.90;4.38;;;8.00;96.30;;;;;;4965730;28;20576;-90
2021/12/05 14:08:53;;;;;;;4.10;3.70;;;8.00;96.30;;;;;;4953835;28;20050;-90
2021/12/05 14:11:19;;;;;;;5.68;4.35;;;8.00;96.40;;;;;;4971609;28;20039;-90
2021/12/05 14:13:45;;;;;;;4.88;4.32;;;8.00;96.40;;;;;;4968457;28;20363;-90
2021/12/05 14:16:11;;;;;;;8.07;5.68;;;8.00;96.30;;;;;;4963572;28;20254;-90
2021/12/05 14:18:37;;;;;;;9.10;6.65;;;8.00;96.10;;;;;;4975086;28;20031;-90
2021/12/05 14:21:12;;;;;;;9.35;7.00;;;8.00;96.00;;;;;;4973368;28;20030;-90
2021/12/05 14:23:37;;;;;;;7.20;6.05;;;8.00;95.80;;;;;;4951533;28;20106;-90
2021/12/05 14:26:17;;;;;;;6.45;5.32;;;8.00;96.00;;;;;;4965520;28;20324;-90
2021/12/05 14:28:53;;;;;;;5.25;4.50;;;8.00;95.80;;;;;;4963302;28;20034;-90
2021/12/05 14:31:24;;;;;;;5.38;4.63;;;8.00;96.00;;;;;;4973652;28;20275;-90
2021/12/05 14:33:51;;;;;;;5.70;4.82;;;8.00;95.90;;;;;;4946557;28;20061;-90
2021/12/05 14:36:23;;;;;;;4.82;4.32;;;8.00;96.00;;;;;;4965704;28;20023;-90
2021/12/05 14:39:11;;;;;;;4.93;4.32;;;8.00;96.00;;;;;;4970304;28;20038;-90
2021/12/05 14:41:37;;;;;;;4.93;4.15;;;8.00;95.80;;;;;;4980766;28;20419;-90
2021/12/05 14:44:04;;;;;;;4.50;3.72;;;8.00;96.00;;;;;;4982936;28;20180;-90
2021/12/05 14:46:30;;;;;;;5.55;4.45;;;8.00;96.00;;;;;;4943853;28;20104;-90
2021/12/05 14:48:58;;;;;;;5.43;4.15;;;8.00;96.00;;;;;;4958473;28;20328;-90
2021/12/05 14:51:39;;;;;;;6.15;4.53;;;8.00;96.10;;;;;;4963416;28;20536;-90
2021/12/05 14:54:07;;;;;;;4.55;3.72;;;8.00;95.90;;;;;;4959429;28;20026;-90
2021/12/05 14:56:35;;;;;;;4.88;4.28;;;8.00;96.00;;;;;;4956267;28;20192;-90
2021/12/05 14:59:11;;;;;;;4.82;4.30;;;8.00;96.00;;;;;;4972918;28;20046;-90
2021/12/05 15:01:39;;;;;;;5.32;3.90;;;8.00;95.80;;;;;;4961083;28;20045;-90
2021/12/05 15:04:07;;;;;;;5.35;4.38;;;8.00;95.90;;;;;;4977087;28;20423;-90
2021/12/05 15:06:42;;;;;;;6.30;4.78;;;8.00;95.90;;;;;;4952983;28;20191;-90
2021/12/05 15:09:18;;;;;;;6.07;5.30;;;8.00;96.00;;;;;;4954681;28;20106;-90
2021/12/05 15:12:00;;;;;;;5.45;4.80;;;8.00;95.90;;;;;;4971143;28;20308;-90
2021/12/05 15:14:28;;;;;;;9.27;4.95;;;8.00;95.80;;;;;;4953235;28;20041;-90
2021/12/05 15:17:03;;;;;;;6.30;4.35;;;8.00;95.90;;;;;;4955099;28;20018;-90
2021/12/05 15:19:29;;;;;;;5.57;4.97;;;8.00;95.90;;;;;;4970021;28;20101;-91
2021/12/05 15:21:55;;;;;;;5.93;4.93;;;7.90;95.90;;;;;;4976251;28;20058;-90
2021/12/05 15:24:27;;;;;;;5.85;4.85;;;7.90;95.80;;;;;;4960795;28;20035;-90
2021/12/05 15:26:53;;;;;;;8.05;5.60;;;7.90;95.80;;;;;;4978465;28;20076;-90
2021/12/05 15:29:21;;;;;;;6.05;5.03;;;7.90;95.80;;;;;;4981052;28;20031;-90
2021/12/05 15:31:47;;;;;;;5.75;5.00;;;7.90;95.80;;;;;;4961186;28;20594;-90
2021/12/05 15:34:20;;;;;;;5.80;4.78;;;7.80;95.70;;;;;;4966553;28;20113;-90
2021/12/05 15:36:46;;;;;;;6.63;5.07;;;7.80;95.70;;;;;;4973426;28;20026;-90
2021/12/05 15:39:22;;;;;;;6.97;5.10;;;7.80;95.70;;;;;;4966505;28;20039;-90
2021/12/05 15:41:54;;;;;;;6.40;5.35;;;7.80;95.70;;;;;;4969978;28;20082;-90
2021/12/05 15:44:24;;;;;;;7.53;5.57;;;7.80;95.70;;;;;;4990506;28;20030;-90
2021/12/05 15:46:49;;;;;;;6.65;5.68;;;7.70;95.70;;;;;;4972555;28;20034;-90
2021/12/05 15:49:15;;;;;;;7.05;5.90;;;7.70;95.70;;;;;;4975188;28;20035;-90
2021/12/05 15:51:41;;;;;;;7.45;5.47;;;7.70;95.80;;;;;;4953233;28;20112;-90
2021/12/05 15:54:07;;;;;;;7.05;5.63;;;7.70;95.70;;;;;;4944968;28;20030;-91
2021/12/05 15:56:33;;;;;;;6.63;5.80;;;7.70;95.70;;;;;;4978269;28;20153;-91
2021/12/05 15:59:02;;;;;;;6.43;5.35;;;7.70;95.70;;;;;;4975972;28;20739;-91
2021/12/05 16:01:29;;;;;;;7.15;5.80;;;7.70;95.70;;;;;;4953480;28;20037;-90
2021/12/05 16:04:00;;;;;;;5.78;4.95;;;7.70;95.70;;;;;;4964306;28;20122;-90
2021/12/05 16:06:39;;;;;;;5.95;4.45;;;7.70;95.60;;;;;;4974180;28;20043;-90
2021/12/05 16:09:14;;;;;;;6.10;4.97;;;7.70;95.50;;;;;;4985969;28;20133;-90
2021/12/05 16:11:40;;;;;;;7.55;4.93;;;7.60;95.50;;;;;;4949765;28;20113;-91
2021/12/05 16:14:06;;;;;;;6.70;5.78;;;7.70;95.70;;;;;;4951588;28;20623;-90
2021/12/05 16:16:35;;;;;;;5.70;4.45;;;7.60;95.70;;;;;;4975613;28;20026;-91
2021/12/05 16:19:08;;;;;;;6.78;5.05;;;7.60;95.70;;;;;;4960184;28;23385;-90
2021/12/05 16:21:36;;;;;;;6.20;4.85;;;7.60;95.70;;;;;;4974675;28;20089;-90
2021/12/05 16:24:11;;;;;;;6.55;5.35;;;7.60;95.70;;;;;;4950244;28;20022;-90
2021/12/05 16:26:38;;;;;;;6.10;5.13;;;7.60;95.70;;;;;;4979650;28;20038;-90
2021/12/05 16:29:07;;;;;;;5.78;4.80;;;7.60;95.70;;;;;;4942951;28;20419;-90
2021/12/05 16:31:37;;;;;;;5.78;4.65;;;7.60;95.70;;;;;;4976374;28;20026;-91
2021/12/05 16:34:09;;;;;;;6.25;4.78;;;7.60;95.70;;;;;;4984040;28;20120;-91
2021/12/05 16:36:38;;;;;;;7.40;5.80;;;7.60;95.80;;;;;;4979941;28;20154;-90
2021/12/05 16:39:14;;;;;;;6.55;5.25;;;7.60;95.80;;;;;;4970249;28;20371;-90
2021/12/05 16:41:44;;;;;;;6.53;4.82;;;7.60;95.70;;;;;;4967886;28;20129;-90
2021/12/05 16:44:16;;;;;;;6.28;5.15;;;7.60;95.80;;;;;;4962397;28;20391;-90
2021/12/05 16:46:47;;;;;;;5.57;4.82;;;7.60;95.70;;;;;;4958408;28;20081;-90
2021/12/05 16:49:34;;;;;;;6.78;5.13;;;7.60;95.70;;;;;;4976411;28;20026;-90
2021/12/05 16:52:04;;;;;;;6.80;5.50;;;7.60;95.70;;;;;;4947420;28;20114;-91
2021/12/05 16:54:36;;;;;;;6.38;5.57;;;7.60;95.70;;;;;;4978312;28;20088;-90
2021/12/05 16:57:16;;;;;;;6.95;5.82;;;7.60;95.70;;;;;;4938382;28;20653;-90
2021/12/05 16:59:51;;;;;;;8.35;5.60;;;7.60;95.70;;;;;;4977676;28;20018;-90
2021/12/05 17:02:29;;;;;;;8.32;6.72;;;7.60;95.70;;;;;;4971041;28;20039;-91
2021/12/05 17:04:59;;;;;;;6.63;5.55;;;7.60;95.60;;;;;;4968312;28;20199;-90
2021/12/05 17:07:50;;;;;;;8.25;6.53;;;7.60;95.80;;;;;;4969288;28;20095;-91
2021/12/05 17:10:24;;;;;;;7.60;5.93;;;7.60;95.60;;;;;;4981339;28;20464;-90
2021/12/05 17:13:20;;;;;;;9.00;6.75;;;7.50;95.70;;;;;;4955755;28;26435;-91
2021/12/05 17:16:24;;;;;;;6.80;5.70;;;7.60;95.70;;;;;;4952445;28;20030;-90
2021/12/05 17:19:07;;;;;;;6.97;5.93;;;7.60;95.50;;;;;;4941531;28;20088;-91
2021/12/05 17:21:38;;;;;;;8.30;6.82;;;7.50;95.60;;;;;;4990472;28;20400;-90
2021/12/05 17:24:12;;;;;;;8.52;6.93;;;7.50;95.70;;;;;;4944931;28;20671;-90
2021/12/05 17:26:44;;;;;;;7.95;7.10;;;7.50;95.70;;;;;;4969130;28;20373;-91
2021/12/05 17:29:19;;;;;;;8.02;7.22;;;7.60;95.80;;;;;;4971988;28;20041;-90
2021/12/05 17:32:07;;;;;;;10.00;8.65;;;7.50;95.80;;;;;;4953751;28;20049;-91
2021/12/05 17:34:37;;;;;;;9.73;8.65;;;7.50;95.70;;;;;;4977849;28;20034;-90
2021/12/05 17:37:09;;;;;;;9.98;8.68;;;7.50;95.80;;;;;;4971363;28;20026;-91
2021/12/05 17:39:42;;;;;;;10.13;8.70;;;7.50;95.70;;;;;;4952117;28;20236;-90
2021/12/05 17:42:11;;;;;;;11.88;9.48;;;7.50;95.70;;;;;;4986608;28;20037;-90
2021/12/05 17:44:39;;;;;;;10.60;8.85;;;7.50;95.70;;;;;;4960916;28;20180;-90
2021/12/05 17:47:08;;;;;;;10.35;8.27;;;7.50;95.70;;;;;;4959436;28;20499;-91
2021/12/05 17:49:36;;;;;;;8.82;7.90;;;7.50;95.70;;;;;;4988407;28;20637;-91
2021/12/05 17:52:04;;;;;;;9.05;7.43;;;7.50;95.70;;;;;;4968136;28;20109;-91
2021/12/05 17:54:37;;;;;;;8.70;7.22;;;7.50;95.70;;;;;;4960440;28;20515;-91
2021/12/05 17:57:12;;;;;;;8.65;6.70;;;7.50;95.70;;;;;;4950137;28;20023;-91
2021/12/05 18:05:01;;;;;;;9.93;7.45;;;7.50;95.60;;;;;;4986520;28;20038;-91
2021/12/05 18:07:27;;;;;;;8.88;7.18;;;7.50;95.70;;;;;;4971789;28;20065;-91
2021/12/05 18:09:52;;;;;;;9.15;7.00;;;7.50;96.00;;;;;;4966400;28;20026;-90
2021/12/05 18:12:32;;;;;;;7.35;6.20;;;7.50;95.60;;;;;;4958681;28;20490;-91
2021/12/05 18:14:58;;;;;;;8.55;6.70;;;7.40;95.60;;;;;;4968394;28;20578;-90
2021/12/05 18:17:24;;;;;;;8.75;6.95;;;7.40;95.60;;;;;;4949959;28;20221;-90
2021/12/05 18:19:50;;;;;;;10.23;7.35;;;7.40;95.50;;;;;;4963268;28;20022;-90
2021/12/05 18:22:17;;;;;;;8.18;6.72;;;7.40;95.50;;;;;;4963708;28;20034;-91
2021/12/05 18:24:44;;;;;;;8.07;6.95;;;7.40;95.50;;;;;;4958393;28;20022;-91
2021/12/05 18:27:12;;;;;;;9.48;7.15;;;7.40;95.50;;;;;;4973863;28;20023;-90
2021/12/05 18:29:37;;;;;;;9.45;7.53;;;7.40;95.50;;;;;;4951861;28;20418;-91
2021/12/05 18:32:04;;;;;;;10.05;7.47;;;7.30;95.50;;;;;;4943694;28;20015;-91
2021/12/05 18:34:31;;;;;;;8.63;6.75;;;7.40;95.50;;;;;;4944506;28;20495;-90
2021/12/05 18:37:01;;;;;;;9.50;7.75;;;7.30;95.60;;;;;;4963000;28;20062;-90
2021/12/05 18:39:34;;;;;;;8.70;7.15;;;7.30;95.60;;;;;;4970909;28;20125;-91
2021/12/05 18:42:05;;;;;;;9.63;7.33;;;7.30;95.90;;;;;;4970674;28;20534;-91
2021/12/05 18:44:35;;;;;;;9.73;7.25;;;7.30;95.60;;;;;;4962531;28;20110;-91
2021/12/05 18:47:01;;;;;;;10.05;7.55;;;7.30;95.70;;;;;;4959623;28;20492;-91
2021/12/05 18:49:28;;;;;;;8.55;6.93;;;7.30;95.70;;;;;;4961352;28;20030;-91
2021/12/05 18:51:55;;;;;;;9.30;6.93;;;7.30;95.70;;;;;;4977625;28;20060;-91
2021/12/05 18:54:22;;;;;;;9.85;7.43;;;7.30;96.00;;;;;;4956593;28;20053;-91
2021/12/05 18:56:48;;;;;;;9.15;7.38;;;7.30;95.70;;;;;;4938789;28;20030;-90
2021/12/05 18:59:14;;;;;;;9.18;7.20;;;7.30;95.70;;;;;;4979792;28;20030;-91
2021/12/05 19:04:45;;;;;;;8.93;6.47;;;7.30;95.70;;;;;;4960633;28;20475;-90
2021/12/05 19:07:18;;;;;;;8.13;6.78;;;7.30;95.70;;;;;;4982636;28;20387;-91
2021/12/05 19:12:18;;;;;;;8.65;6.78;;;7.30;95.80;;;;;;4967567;28;20153;-91